Time;durP1;ratioP1;P1;durP2;ratioP2;P2;SDS_P1;SDS_P2;PMS_P1;PMS_P2;Temp;Humidity;BMP_temperature;BMP_pressure;BME280_temperature;BME280_humidity;BME280_pressure;Samples;Min_cycle;Max_cycle;Signal;HPM_P1;HPM_P2
2023/10/23 00:01:40;;;;;;;10.65;3.33;;;11.80;99.90;;;;;;4949764;28;20114;-66
2023/10/23 00:04:06;;;;;;;9.00;3.58;;;11.80;99.90;;;;;;4947608;29;20457;-66
2023/10/23 00:06:32;;;;;;;10.23;3.28;;;11.80;99.90;;;;;;4948346;28;20126;-66
2023/10/23 00:08:59;;;;;;;9.35;3.47;;;11.80;99.90;;;;;;4950719;28;20103;-66
2023/10/23 00:11:26;;;;;;;7.75;3.35;;;11.80;99.90;;;;;;4950030;28;20406;-66
2023/10/23 00:13:52;;;;;;;12.52;3.70;;;11.80;99.90;;;;;;4949242;29;20379;-66
2023/10/23 00:16:18;;;;;;;8.00;3.30;;;11.80;99.90;;;;;;4949338;28;20028;-66
2023/10/23 00:18:44;;;;;;;9.63;3.53;;;11.80;99.90;;;;;;4951463;28;20036;-66
2023/10/23 00:21:10;;;;;;;10.25;3.40;;;11.80;99.90;;;;;;4949447;28;20123;-66
2023/10/23 00:23:38;;;;;;;10.57;3.30;;;11.80;99.90;;;;;;4949427;28;20035;-64
2023/10/23 00:26:05;;;;;;;10.25;3.40;;;11.90;99.90;;;;;;4949447;28;20792;-64
2023/10/23 00:28:32;;;;;;;11.18;3.20;;;11.90;99.90;;;;;;4947868;28;20027;-64
2023/10/23 00:30:58;;;;;;;8.68;3.30;;;11.90;99.90;;;;;;4949645;28;20027;-64
2023/10/23 00:33:25;;;;;;;9.82;3.60;;;11.90;99.90;;;;;;4949546;28;20069;-64
2023/10/23 00:35:50;;;;;;;10.15;4.20;;;11.90;99.90;;;;;;4949906;28;20042;-64
2023/10/23 00:38:16;;;;;;;7.72;3.28;;;11.80;99.90;;;;;;4949292;28;20382;-64
2023/10/23 00:40:41;;;;;;;10.25;3.20;;;11.80;99.90;;;;;;4949825;29;20039;-64
2023/10/23 00:43:25;;;;;;;10.82;4.60;;;11.80;99.90;;;;;;4949047;28;20054;-64
2023/10/23 00:45:53;;;;;;;8.77;3.45;;;11.80;99.90;;;;;;4947886;29;20028;-64
2023/10/23 00:48:22;;;;;;;12.13;3.42;;;11.80;99.90;;;;;;4949192;28;20112;-64
2023/10/23 00:50:49;;;;;;;11.00;3.25;;;11.70;99.90;;;;;;4946179;29;20038;-64
2023/10/23 00:53:17;;;;;;;7.72;3.10;;;11.70;99.90;;;;;;4949299;28;20154;-64
2023/10/23 00:55:47;;;;;;;9.40;3.20;;;11.80;99.90;;;;;;4949596;28;20064;-65
2023/10/23 00:58:17;;;;;;;10.95;3.70;;;11.80;99.90;;;;;;4948343;28;20031;-64
2023/10/23 01:00:44;;;;;;;7.93;3.00;;;11.80;99.90;;;;;;4944557;29;20027;-64
2023/10/23 01:03:12;;;;;;;8.90;3.63;;;11.70;99.90;;;;;;4948404;28;20039;-64
2023/10/23 01:05:38;;;;;;;8.93;3.55;;;11.80;99.90;;;;;;4949030;28;20031;-65
2023/10/23 01:08:05;;;;;;;13.73;3.30;;;11.80;99.90;;;;;;4948761;28;20029;-64
2023/10/23 01:10:32;;;;;;;8.60;3.17;;;11.70;99.90;;;;;;4944775;29;20048;-64
2023/10/23 01:12:58;;;;;;;8.27;3.35;;;11.60;99.90;;;;;;4948428;28;20031;-64
2023/10/23 01:15:23;;;;;;;7.65;3.22;;;11.60;99.90;;;;;;4947913;28;20336;-64
2023/10/23 01:17:50;;;;;;;11.43;3.03;;;11.50;99.90;;;;;;4950889;28;20391;-64
2023/10/23 01:20:17;;;;;;;9.73;3.40;;;11.50;99.90;;;;;;4947926;28;20039;-64
2023/10/23 01:22:43;;;;;;;9.38;3.30;;;11.50;99.90;;;;;;4948460;28;20169;-64
2023/10/23 01:25:13;;;;;;;9.98;3.42;;;11.50;99.90;;;;;;4947770;28;20122;-64
2023/10/23 01:27:39;;;;;;;9.88;3.33;;;11.50;99.90;;;;;;4948511;28;20869;-64
2023/10/23 01:30:05;;;;;;;9.82;3.00;;;11.50;99.90;;;;;;4946716;28;20039;-64
2023/10/23 01:32:31;;;;;;;7.90;3.03;;;11.50;99.90;;;;;;4947260;28;20032;-64
2023/10/23 01:34:56;;;;;;;8.10;3.28;;;11.50;99.90;;;;;;4944830;29;20408;-64
2023/10/23 01:37:24;;;;;;;9.50;3.55;;;11.50;99.90;;;;;;4947782;29;20039;-64
2023/10/23 01:39:50;;;;;;;10.48;3.78;;;11.60;99.90;;;;;;4948132;28;20110;-64
2023/10/23 01:42:15;;;;;;;11.13;3.40;;;11.60;99.90;;;;;;4947597;29;20462;-64
2023/10/23 01:44:41;;;;;;;10.15;3.72;;;11.60;99.90;;;;;;4946606;29;20023;-64
2023/10/23 01:47:06;;;;;;;12.13;4.25;;;11.60;99.90;;;;;;4947366;28;20406;-64
2023/10/23 01:49:32;;;;;;;9.75;3.70;;;11.60;99.90;;;;;;4948051;28;20062;-64
2023/10/23 01:51:58;;;;;;;13.13;3.65;;;11.60;99.90;;;;;;4946486;29;20053;-64
2023/10/23 01:54:23;;;;;;;10.20;3.40;;;11.60;99.90;;;;;;4947244;28;20562;-65
2023/10/23 01:56:49;;;;;;;11.77;3.47;;;11.60;99.90;;;;;;4948224;29;20126;-64
2023/10/23 01:59:14;;;;;;;15.52;3.70;;;11.60;99.90;;;;;;4945763;29;20043;-64
2023/10/23 02:01:40;;;;;;;10.98;3.20;;;11.60;99.90;;;;;;4945880;28;20035;-64
2023/10/23 02:04:07;;;;;;;9.93;3.50;;;11.60;99.90;;;;;;4945653;28;20453;-64
2023/10/23 02:06:32;;;;;;;10.68;3.30;;;11.50;99.90;;;;;;4947091;28;20038;-64
2023/10/23 02:08:59;;;;;;;9.48;3.13;;;11.50;99.90;;;;;;4947445;29;20055;-64
2023/10/23 02:11:25;;;;;;;12.07;3.50;;;11.50;99.90;;;;;;4945808;28;20040;-64
2023/10/23 02:13:50;;;;;;;8.82;3.05;;;11.30;99.90;;;;;;4947422;28;20043;-64
2023/10/23 02:16:16;;;;;;;9.27;3.50;;;11.20;99.90;;;;;;4947195;29;20520;-64
2023/10/23 02:18:42;;;;;;;10.38;3.30;;;11.00;99.90;;;;;;4950996;28;20088;-64
2023/10/23 02:21:07;;;;;;;14.50;4.30;;;10.80;99.90;;;;;;4947068;28;20035;-64
2023/10/23 02:23:33;;;;;;;11.50;3.80;;;10.70;99.90;;;;;;4947495;28;20085;-64
2023/10/23 02:25:59;;;;;;;11.65;3.53;;;10.50;99.90;;;;;;4947533;29;20046;-64
2023/10/23 02:28:25;;;;;;;12.27;3.20;;;10.40;99.90;;;;;;4945576;28;20123;-64
2023/10/23 02:30:51;;;;;;;9.13;3.50;;;10.20;99.90;;;;;;4947301;28;20031;-64
2023/10/23 02:33:17;;;;;;;8.27;3.35;;;10.10;99.90;;;;;;4944002;28;20413;-64
2023/10/23 02:35:43;;;;;;;10.05;3.47;;;9.90;99.90;;;;;;4948192;28;20031;-64
2023/10/23 02:38:09;;;;;;;9.93;4.88;;;9.80;99.90;;;;;;4947023;28;20035;-64
2023/10/23 02:40:34;;;;;;;11.13;4.43;;;9.50;99.90;;;;;;4947648;28;20036;-64
2023/10/23 02:43:00;;;;;;;10.85;4.28;;;9.50;99.90;;;;;;4948874;28;20034;-65
2023/10/23 02:45:26;;;;;;;10.30;4.38;;;9.40;99.90;;;;;;4946481;29;20433;-64
2023/10/23 02:47:53;;;;;;;13.55;4.97;;;9.30;99.90;;;;;;4949895;29;20039;-64
2023/10/23 02:50:19;;;;;;;12.55;5.20;;;9.20;99.90;;;;;;4950381;28;20038;-64
2023/10/23 02:52:45;;;;;;;12.70;5.70;;;9.40;99.90;;;;;;4950748;28;20039;-64
2023/10/23 02:55:11;;;;;;;14.38;5.30;;;9.40;99.90;;;;;;4950075;28;20765;-64
2023/10/23 02:57:36;;;;;;;13.82;5.60;;;9.40;99.90;;;;;;4950754;28;20050;-64
2023/10/23 03:00:05;;;;;;;13.70;5.43;;;9.40;99.90;;;;;;4949260;28;20031;-64
2023/10/23 03:02:31;;;;;;;11.85;5.25;;;9.30;99.90;;;;;;4950618;28;20031;-64
2023/10/23 03:04:57;;;;;;;16.65;5.45;;;9.10;99.90;;;;;;4950582;28;20025;-64
2023/10/23 03:07:23;;;;;;;14.85;5.72;;;9.00;99.90;;;;;;4949920;28;20028;-64
2023/10/23 03:09:49;;;;;;;11.73;5.28;;;8.90;99.90;;;;;;4950544;28;20083;-64
2023/10/23 03:12:15;;;;;;;15.13;5.90;;;8.90;99.90;;;;;;4949673;28;20031;-64
2023/10/23 03:14:40;;;;;;;16.48;6.13;;;8.80;99.90;;;;;;4950338;29;20042;-64
2023/10/23 03:17:07;;;;;;;15.77;6.05;;;8.80;99.90;;;;;;4950809;28;20544;-64
2023/10/23 03:19:32;;;;;;;15.48;5.88;;;8.70;99.90;;;;;;4950377;28;20470;-64
2023/10/23 03:21:58;;;;;;;15.10;6.30;;;8.70;99.90;;;;;;4950253;28;20046;-64
2023/10/23 03:24:24;;;;;;;18.38;6.50;;;8.80;99.90;;;;;;4949749;29;20042;-64
2023/10/23 03:26:49;;;;;;;16.27;6.93;;;8.90;99.90;;;;;;4950230;28;20580;-64
2023/10/23 03:29:15;;;;;;;16.05;6.35;;;8.80;99.90;;;;;;4948039;29;20089;-64
2023/10/23 03:31:41;;;;;;;12.27;5.63;;;8.90;99.90;;;;;;4950124;28;20398;-64
2023/10/23 03:34:06;;;;;;;12.63;5.60;;;9.00;99.90;;;;;;4949689;29;20036;-64
2023/10/23 03:36:32;;;;;;;13.30;5.95;;;9.10;99.90;;;;;;4950159;28;20411;-64
2023/10/23 03:38:58;;;;;;;17.33;6.00;;;9.20;99.90;;;;;;4950137;28;20395;-64
2023/10/23 03:41:25;;;;;;;13.43;5.95;;;9.30;99.90;;;;;;4949549;28;20036;-64
2023/10/23 03:43:51;;;;;;;13.15;6.03;;;9.30;99.90;;;;;;4949827;28;20027;-64
2023/10/23 03:46:17;;;;;;;18.75;5.63;;;9.30;99.90;;;;;;4949389;28;20039;-64
2023/10/23 03:48:42;;;;;;;15.68;5.65;;;9.30;99.90;;;;;;4949450;28;20078;-64
2023/10/23 03:51:09;;;;;;;13.65;5.57;;;9.20;99.90;;;;;;4947886;29;20852;-64
2023/10/23 03:53:34;;;;;;;12.13;5.80;;;8.90;99.90;;;;;;4946754;28;20030;-65
2023/10/23 03:56:03;;;;;;;15.20;5.90;;;8.70;99.90;;;;;;4950813;28;20126;-65
2023/10/23 03:58:29;;;;;;;14.02;5.82;;;8.50;99.90;;;;;;4949196;28;20062;-65
2023/10/23 04:00:54;;;;;;;14.93;5.28;;;8.40;99.90;;;;;;4950656;28;20039;-65
2023/10/23 04:03:21;;;;;;;12.50;5.15;;;8.20;99.90;;;;;;4951216;28;20036;-65
2023/10/23 04:05:46;;;;;;;11.00;5.00;;;8.10;99.90;;;;;;4950500;28;20054;-65
2023/10/23 04:08:12;;;;;;;13.07;6.05;;;7.90;99.90;;;;;;4950132;28;20059;-65
2023/10/23 04:10:45;;;;;;;11.90;5.80;;;7.80;99.90;;;;;;4948636;29;20043;-65
2023/10/23 04:13:12;;;;;;;17.58;5.70;;;7.60;99.90;;;;;;4951813;28;20394;-65
2023/10/23 04:15:38;;;;;;;14.95;5.90;;;7.50;99.90;;;;;;4956168;28;20027;-66
2023/10/23 04:18:04;;;;;;;15.40;5.82;;;7.50;99.90;;;;;;4979757;28;20111;-66
2023/10/23 04:20:30;;;;;;;14.75;6.25;;;7.50;99.90;;;;;;4962358;28;20042;-65
2023/10/23 04:22:56;;;;;;;13.05;6.53;;;7.50;99.90;;;;;;4946037;28;20707;-65
2023/10/23 04:25:21;;;;;;;14.38;6.10;;;7.50;99.90;;;;;;4951625;29;20023;-65
2023/10/23 04:27:47;;;;;;;16.55;7.07;;;7.60;99.90;;;;;;4966440;28;20035;-65
2023/10/23 04:30:13;;;;;;;17.05;6.80;;;7.80;99.90;;;;;;4946490;28;20495;-65
2023/10/23 04:32:38;;;;;;;17.42;6.93;;;7.90;99.90;;;;;;4957289;28;20017;-65
2023/10/23 04:35:04;;;;;;;17.10;6.80;;;8.10;99.90;;;;;;4951038;28;20344;-66
2023/10/23 04:37:30;;;;;;;17.45;7.43;;;8.30;99.90;;;;;;4965608;28;20028;-66
2023/10/23 04:39:55;;;;;;;19.05;7.47;;;8.40;99.90;;;;;;4944900;28;20035;-65
2023/10/23 04:42:21;;;;;;;16.13;7.05;;;8.50;99.90;;;;;;4944673;28;20039;-65
2023/10/23 04:44:50;;;;;;;16.63;7.30;;;8.60;99.90;;;;;;4948424;29;20031;-65
2023/10/23 04:47:15;;;;;;;21.60;8.13;;;8.60;99.90;;;;;;4948526;28;20027;-65
2023/10/23 04:49:41;;;;;;;17.33;8.10;;;8.60;99.90;;;;;;4949999;29;20031;-65
2023/10/23 04:52:07;;;;;;;21.45;8.48;;;8.60;99.90;;;;;;4947823;28;20031;-66
2023/10/23 04:54:32;;;;;;;25.90;9.40;;;8.60;99.90;;;;;;4947439;28;20036;-66
2023/10/23 04:56:58;;;;;;;20.55;9.07;;;8.70;99.90;;;;;;4945382;29;20031;-66
2023/10/23 04:59:23;;;;;;;26.80;9.40;;;9.00;99.90;;;;;;4946375;28;20039;-66
2023/10/23 05:01:49;;;;;;;23.77;9.68;;;9.10;99.90;;;;;;4943888;28;20128;-66
2023/10/23 05:04:15;;;;;;;21.70;8.52;;;9.40;99.90;;;;;;4947330;28;20029;-65
2023/10/23 05:06:40;;;;;;;19.25;8.48;;;9.50;99.90;;;;;;4941970;28;20035;-65
2023/10/23 05:09:06;;;;;;;21.23;8.63;;;9.60;99.90;;;;;;4943783;28;20087;-65
2023/10/23 05:11:32;;;;;;;22.13;8.10;;;9.80;99.90;;;;;;4946432;28;20049;-65
2023/10/23 05:13:58;;;;;;;23.15;9.00;;;9.80;99.90;;;;;;4945904;28;20031;-65
2023/10/23 05:16:24;;;;;;;24.83;9.00;;;9.80;99.90;;;;;;4941759;29;20108;-66
2023/10/23 05:18:49;;;;;;;20.63;8.57;;;9.90;99.90;;;;;;4950222;28;20031;-66
2023/10/23 05:21:15;;;;;;;19.27;8.32;;;10.00;99.90;;;;;;4943204;28;20035;-66
2023/10/23 05:23:42;;;;;;;19.63;8.30;;;10.00;99.90;;;;;;4945153;28;20074;-66
2023/10/23 05:26:10;;;;;;;23.05;9.52;;;10.10;99.90;;;;;;4946521;28;20476;-66
2023/10/23 05:28:39;;;;;;;20.52;8.50;;;10.10;99.90;;;;;;4945707;28;20047;-66
2023/10/23 05:31:05;;;;;;;20.17;8.63;;;10.10;99.90;;;;;;4947493;28;20027;-66
2023/10/23 05:33:30;;;;;;;21.67;9.07;;;10.10;99.90;;;;;;4946941;28;20077;-66
2023/10/23 05:36:08;;;;;;;22.48;8.65;;;10.10;99.90;;;;;;4947576;29;20046;-66
2023/10/23 05:38:35;;;;;;;21.45;9.10;;;10.10;99.90;;;;;;4947352;28;20129;-65
2023/10/23 05:41:00;;;;;;;21.15;9.50;;;10.20;99.90;;;;;;4947487;28;20043;-65
2023/10/23 05:43:26;;;;;;;22.85;9.65;;;10.10;99.90;;;;;;4946900;28;20028;-65
2023/10/23 05:45:53;;;;;;;26.08;8.90;;;10.10;99.90;;;;;;4947513;28;20081;-65
2023/10/23 05:48:19;;;;;;;19.50;8.68;;;10.00;99.90;;;;;;4946868;28;20681;-65
2023/10/23 05:50:45;;;;;;;24.85;8.27;;;10.00;99.90;;;;;;4947132;28;20037;-65
2023/10/23 05:53:10;;;;;;;19.60;8.70;;;10.00;99.90;;;;;;4945572;29;20031;-65
2023/10/23 05:55:36;;;;;;;20.08;8.35;;;9.90;99.90;;;;;;4963663;28;20370;-66
2023/10/23 05:58:03;;;;;;;17.50;8.02;;;9.90;99.90;;;;;;4940712;29;20106;-66
2023/10/23 06:00:29;;;;;;;17.95;7.82;;;9.90;99.90;;;;;;4944523;28;20035;-66
2023/10/23 06:02:55;;;;;;;20.55;8.68;;;9.90;99.90;;;;;;4946755;28;20152;-66
2023/10/23 06:05:20;;;;;;;21.55;8.50;;;9.80;99.90;;;;;;4944845;28;20368;-66
2023/10/23 06:07:46;;;;;;;18.73;9.15;;;9.80;99.90;;;;;;4945681;28;20123;-66
2023/10/23 06:10:12;;;;;;;18.02;8.40;;;9.80;99.90;;;;;;4945481;29;20145;-66
2023/10/23 06:12:37;;;;;;;26.58;9.00;;;9.70;99.90;;;;;;4947125;28;20462;-66
2023/10/23 06:15:04;;;;;;;21.25;8.85;;;9.70;99.90;;;;;;4946106;28;20089;-64
2023/10/23 06:17:29;;;;;;;33.03;10.10;;;9.60;99.90;;;;;;4945186;28;20020;-63
2023/10/23 06:19:55;;;;;;;22.63;9.02;;;9.40;99.90;;;;;;4946306;29;20027;-63
2023/10/23 06:22:20;;;;;;;24.00;8.52;;;9.50;99.90;;;;;;4946006;29;20031;-63
2023/10/23 06:24:46;;;;;;;28.25;9.48;;;9.50;99.90;;;;;;4946366;28;20024;-63
2023/10/23 06:27:11;;;;;;;18.83;8.48;;;9.40;99.90;;;;;;4946202;28;20038;-63
2023/10/23 06:29:37;;;;;;;23.40;8.55;;;9.40;99.90;;;;;;4944851;28;20411;-63
2023/10/23 06:32:03;;;;;;;18.27;8.32;;;9.30;99.90;;;;;;4945854;29;20070;-63
2023/10/23 06:34:28;;;;;;;18.95;8.05;;;9.20;99.90;;;;;;4945853;28;20081;-64
2023/10/23 06:36:56;;;;;;;17.85;8.60;;;9.10;99.90;;;;;;4946446;29;20035;-64
2023/10/23 06:39:21;;;;;;;19.80;7.88;;;8.90;99.90;;;;;;4945735;28;20054;-63
2023/10/23 06:41:49;;;;;;;18.38;8.68;;;8.80;99.90;;;;;;4944746;29;20710;-63
2023/10/23 06:44:15;;;;;;;17.15;8.10;;;8.60;99.90;;;;;;4945621;28;20562;-63
2023/10/23 06:46:41;;;;;;;16.83;7.72;;;8.60;99.90;;;;;;4946298;29;20035;-64
2023/10/23 06:49:12;;;;;;;22.90;7.78;;;8.50;99.90;;;;;;4946303;28;20031;-63
2023/10/23 06:51:38;;;;;;;18.38;8.13;;;8.40;99.90;;;;;;4946590;28;20133;-63
2023/10/23 06:54:06;;;;;;;18.65;7.63;;;8.40;99.90;;;;;;4946177;28;20809;-63
2023/10/23 06:56:32;;;;;;;26.55;9.73;;;8.40;99.90;;;;;;4946222;28;20039;-63
2023/10/23 06:58:58;;;;;;;21.88;8.95;;;8.40;99.90;;;;;;4943325;29;20027;-64
2023/10/23 07:01:23;;;;;;;29.23;9.65;;;8.50;99.90;;;;;;4945867;28;20053;-63
2023/10/23 07:03:49;;;;;;;26.58;10.00;;;8.50;99.90;;;;;;4946148;29;20066;-63
2023/10/23 07:06:14;;;;;;;23.80;10.13;;;8.60;99.90;;;;;;4945980;28;20536;-63
2023/10/23 07:08:40;;;;;;;20.30;9.00;;;8.60;99.90;;;;;;4945984;29;20043;-64
2023/10/23 07:11:14;;;;;;;22.45;9.20;;;8.70;99.90;;;;;;4944658;28;20058;-64
2023/10/23 07:13:40;;;;;;;24.35;9.20;;;8.70;99.90;;;;;;4944277;29;20038;-64
2023/10/23 07:16:06;;;;;;;25.45;10.30;;;8.60;99.90;;;;;;4946236;29;20027;-64
2023/10/23 07:18:31;;;;;;;25.15;10.18;;;8.80;99.90;;;;;;4946133;28;20032;-63
2023/10/23 07:21:01;;;;;;;20.00;9.80;;;8.90;99.90;;;;;;4946315;28;20031;-63
2023/10/23 07:23:29;;;;;;;23.08;9.00;;;9.00;99.90;;;;;;4945716;28;20670;-65
2023/10/23 07:26:14;;;;;;;20.25;9.45;;;9.20;99.90;;;;;;4945975;28;20480;-65
2023/10/23 07:28:40;;;;;;;18.75;8.43;;;9.40;99.90;;;;;;4944437;28;20035;-65
2023/10/23 07:31:09;;;;;;;20.08;8.98;;;9.60;99.90;;;;;;4948927;28;20031;-65
2023/10/23 07:33:34;;;;;;;16.30;7.40;;;9.60;99.90;;;;;;4948998;28;20446;-65
2023/10/23 07:36:05;;;;;;;20.05;8.15;;;9.70;99.90;;;;;;4949723;28;20110;-65
2023/10/23 07:38:31;;;;;;;15.95;7.53;;;9.90;99.90;;;;;;4949006;28;20036;-65
2023/10/23 07:40:57;;;;;;;19.98;8.00;;;10.00;99.90;;;;;;4949422;28;20110;-65
2023/10/23 07:43:28;;;;;;;17.25;7.15;;;10.00;99.90;;;;;;4948856;28;20050;-66
2023/10/23 07:45:54;;;;;;;15.13;7.15;;;10.10;99.90;;;;;;4949426;29;20047;-66
2023/10/23 07:48:24;;;;;;;17.52;7.68;;;10.20;99.90;;;;;;4948969;28;20040;-66
2023/10/23 07:50:50;;;;;;;22.35;7.50;;;10.20;99.90;;;;;;4949563;28;20155;-66
2023/10/23 07:53:16;;;;;;;19.65;7.40;;;10.30;99.90;;;;;;4948999;28;20791;-66
2023/10/23 07:55:44;;;;;;;16.98;7.22;;;10.30;99.90;;;;;;4949201;28;20035;-66
2023/10/23 07:58:10;;;;;;;23.05;8.45;;;10.40;99.90;;;;;;4949388;28;20043;-66
2023/10/23 08:00:35;;;;;;;16.55;6.95;;;10.40;99.90;;;;;;4947326;28;20034;-66
2023/10/23 08:03:01;;;;;;;19.98;7.15;;;10.50;99.90;;;;;;4949361;28;20065;-66
2023/10/23 08:05:29;;;;;;;15.65;6.50;;;10.70;99.90;;;;;;4947320;29;20031;-66
2023/10/23 08:07:55;;;;;;;16.13;6.78;;;10.70;99.90;;;;;;4949326;28;20677;-66
2023/10/23 08:10:21;;;;;;;17.73;6.75;;;10.80;99.90;;;;;;4946628;29;20043;-66
2023/10/23 08:12:47;;;;;;;16.00;6.68;;;10.90;99.90;;;;;;4949359;29;20088;-66
2023/10/23 08:15:12;;;;;;;13.73;5.47;;;11.00;99.90;;;;;;4948914;28;20038;-66
2023/10/23 08:17:38;;;;;;;13.13;5.65;;;11.10;99.90;;;;;;4948033;28;20387;-66
2023/10/23 08:20:08;;;;;;;15.63;5.28;;;11.20;99.90;;;;;;4949087;28;20434;-66
2023/10/23 08:22:34;;;;;;;13.32;5.47;;;11.40;99.90;;;;;;4948615;28;20023;-66
2023/10/23 08:25:00;;;;;;;11.85;4.78;;;11.70;99.90;;;;;;4948999;28;20031;-66
2023/10/23 08:27:26;;;;;;;11.85;4.70;;;12.10;99.90;;;;;;4947047;29;20067;-66
2023/10/23 08:29:51;;;;;;;12.68;4.85;;;12.50;99.90;;;;;;4943960;28;20035;-66
2023/10/23 08:32:17;;;;;;;8.80;4.18;;;12.90;99.90;;;;;;4948329;28;20140;-66
2023/10/23 08:34:43;;;;;;;9.57;3.92;;;13.30;99.90;;;;;;4948875;28;20091;-64
2023/10/23 08:37:08;;;;;;;8.18;3.42;;;13.70;99.90;;;;;;4948620;29;20165;-64
2023/10/23 08:39:34;;;;;;;10.95;3.92;;;14.00;99.90;;;;;;4947780;28;20110;-64
2023/10/23 08:42:03;;;;;;;12.60;3.30;;;14.40;99.90;;;;;;4948115;28;20046;-64
2023/10/23 08:44:29;;;;;;;7.53;3.22;;;14.90;99.90;;;;;;4944633;29;20038;-64
2023/10/23 08:46:55;;;;;;;11.95;3.50;;;15.40;99.90;;;;;;4948564;28;20023;-64
2023/10/23 08:49:21;;;;;;;8.60;3.22;;;15.50;99.90;;;;;;4947686;28;20027;-64
2023/10/23 08:51:53;;;;;;;10.98;4.10;;;15.50;99.90;;;;;;4946661;29;20031;-62
2023/10/23 08:54:20;;;;;;;8.55;3.72;;;15.50;99.80;;;;;;4943959;28;20027;-63
2023/10/23 08:56:53;;;;;;;10.48;3.80;;;15.50;99.90;;;;;;4948829;28;20419;-63
2023/10/23 08:59:21;;;;;;;9.25;3.60;;;15.60;99.90;;;;;;4946300;28;20024;-64
2023/10/23 09:01:47;;;;;;;9.05;3.78;;;15.90;99.20;;;;;;4948042;28;20076;-63
2023/10/23 09:04:12;;;;;;;8.88;3.72;;;16.10;98.50;;;;;;4947912;28;20179;-63
2023/10/23 09:06:42;;;;;;;8.40;3.50;;;16.10;98.50;;;;;;4945693;29;20118;-63
2023/10/23 09:09:10;;;;;;;10.55;3.83;;;16.10;98.80;;;;;;4948051;28;20498;-63
2023/10/23 09:11:45;;;;;;;9.48;3.78;;;16.20;97.90;;;;;;4945446;28;20176;-63
2023/10/23 09:14:23;;;;;;;15.73;4.03;;;16.40;97.60;;;;;;4945245;29;20046;-63
2023/10/23 09:16:49;;;;;;;10.13;3.88;;;16.60;96.90;;;;;;4948333;28;20137;-63
2023/10/23 09:19:25;;;;;;;9.90;3.55;;;16.60;96.10;;;;;;4947474;28;20407;-63
2023/10/23 09:21:56;;;;;;;9.02;3.17;;;16.70;94.60;;;;;;4947523;28;20102;-63
2023/10/23 09:24:23;;;;;;;7.90;2.95;;;16.50;95.40;;;;;;4943393;28;20023;-63
2023/10/23 09:26:50;;;;;;;8.32;3.28;;;16.40;95.30;;;;;;4947307;28;20054;-63
2023/10/23 09:29:20;;;;;;;7.97;3.33;;;16.30;95.60;;;;;;4945959;28;20478;-63
2023/10/23 09:31:46;;;;;;;;;;;16.20;95.10;;;;;;4948116;28;20562;-63
2023/10/23 09:34:12;;;;;;;7.60;3.10;;;16.10;95.40;;;;;;4947540;29;20048;-63
2023/10/23 09:36:38;;;;;;;9.27;2.70;;;16.30;95.70;;;;;;4947006;28;20070;-63
2023/10/23 09:39:04;;;;;;;7.68;3.20;;;16.50;95.70;;;;;;4947731;28;20034;-63
2023/10/23 09:41:30;;;;;;;7.13;2.90;;;16.70;94.00;;;;;;4946761;28;20031;-64
2023/10/23 09:43:57;;;;;;;7.80;2.70;;;16.80;94.30;;;;;;4947288;28;20035;-65
2023/10/23 09:46:25;;;;;;;9.98;2.85;;;17.00;93.90;;;;;;4951046;28;20023;-65
2023/10/23 09:48:54;;;;;;;8.27;2.97;;;17.30;91.80;;;;;;4952370;28;20098;-65
2023/10/23 09:51:29;;;;;;;7.68;2.20;;;17.60;90.40;;;;;;4951751;28;20142;-66
2023/10/23 09:54:03;;;;;;;5.63;2.10;;;18.00;88.00;;;;;;4973186;28;20058;-66
2023/10/23 09:56:32;;;;;;;6.75;2.15;;;18.50;85.30;;;;;;4950949;28;20674;-66
2023/10/23 09:59:04;;;;;;;6.47;2.13;;;18.80;84.70;;;;;;4950101;29;20024;-66
2023/10/23 10:01:50;;;;;;;9.35;2.25;;;19.00;83.20;;;;;;4951151;28;20491;-66
2023/10/23 10:04:29;;;;;;;6.47;2.40;;;19.20;80.80;;;;;;4950586;28;20418;-66
2023/10/23 10:07:10;;;;;;;7.15;2.67;;;19.00;80.30;;;;;;4952229;28;20050;-66
2023/10/23 10:09:37;;;;;;;6.72;2.70;;;18.90;80.80;;;;;;4949184;29;20051;-66
2023/10/23 10:12:04;;;;;;;8.15;2.60;;;19.00;81.50;;;;;;4953157;28;20071;-66
2023/10/23 10:14:32;;;;;;;7.25;3.03;;;19.10;80.40;;;;;;4952436;28;20155;-66
2023/10/23 10:16:59;;;;;;;10.43;2.67;;;18.90;81.60;;;;;;4951833;29;20019;-66
2023/10/23 10:19:26;;;;;;;8.07;2.47;;;18.80;81.20;;;;;;4953018;28;20123;-66
2023/10/23 10:22:15;;;;;;;5.80;2.20;;;18.80;82.70;;;;;;4952577;28;20106;-66
2023/10/23 10:24:41;;;;;;;6.60;2.20;;;18.70;85.10;;;;;;4950907;28;20112;-66
2023/10/23 10:27:08;;;;;;;6.18;2.10;;;18.70;82.10;;;;;;4953346;28;20092;-66
2023/10/23 10:29:33;;;;;;;6.53;2.30;;;18.40;82.90;;;;;;4951941;28;20028;-66
2023/10/23 10:32:09;;;;;;;6.20;1.98;;;18.30;85.50;;;;;;4953062;29;20027;-66
2023/10/23 10:34:36;;;;;;;6.97;2.10;;;18.50;84.80;;;;;;4950754;28;20118;-66
2023/10/23 10:37:04;;;;;;;6.38;1.92;;;18.50;81.20;;;;;;4952935;28;20087;-66
2023/10/23 10:39:50;;;;;;;5.88;2.15;;;18.40;85.60;;;;;;4952501;28;20035;-66
2023/10/23 10:42:26;;;;;;;7.43;2.55;;;18.50;85.50;;;;;;4951420;28;20059;-66
2023/10/23 10:45:10;;;;;;;7.03;2.20;;;18.60;84.90;;;;;;4952478;28;20019;-66
2023/10/23 10:47:54;;;;;;;7.28;2.20;;;18.60;86.10;;;;;;4949473;29;20023;-66
2023/10/23 10:50:38;;;;;;;5.40;1.90;;;18.70;85.00;;;;;;4952614;28;20034;-66
2023/10/23 10:53:06;;;;;;;8.07;2.38;;;18.70;85.80;;;;;;4951937;28;20069;-66
2023/10/23 10:55:33;;;;;;;6.82;2.65;;;18.70;84.50;;;;;;4943035;29;20019;-64
2023/10/23 10:58:02;;;;;;;7.25;2.45;;;18.70;82.90;;;;;;4946949;28;20497;-64
2023/10/23 11:00:32;;;;;;;7.85;2.20;;;18.60;84.00;;;;;;4944867;28;20093;-64
2023/10/23 11:02:58;;;;;;;6.57;2.38;;;18.60;83.50;;;;;;4946804;28;20137;-64
2023/10/23 11:05:24;;;;;;;6.90;2.50;;;18.50;80.90;;;;;;4946239;29;20574;-64
2023/10/23 11:07:51;;;;;;;6.35;2.70;;;18.40;82.30;;;;;;4950191;28;20038;-64
2023/10/23 11:10:17;;;;;;;6.22;2.30;;;18.10;82.50;;;;;;4950016;28;20047;-64
2023/10/23 11:12:42;;;;;;;9.30;2.90;;;17.80;85.40;;;;;;4949608;28;20097;-64
2023/10/23 11:15:09;;;;;;;7.80;2.88;;;17.90;88.00;;;;;;4948445;29;20062;-64
2023/10/23 11:17:35;;;;;;;8.18;3.00;;;17.90;85.70;;;;;;4952195;28;20038;-64
2023/10/23 11:20:06;;;;;;;7.78;2.83;;;17.70;84.40;;;;;;4950129;28;20185;-64
2023/10/23 11:22:32;;;;;;;6.35;3.20;;;17.60;89.20;;;;;;4949416;28;20031;-64
2023/10/23 11:24:58;;;;;;;6.93;3.00;;;17.60;86.30;;;;;;4950113;28;20023;-65
2023/10/23 11:27:23;;;;;;;6.60;2.70;;;17.60;90.50;;;;;;4949971;28;20031;-64
2023/10/23 11:29:49;;;;;;;9.05;3.17;;;17.70;89.90;;;;;;4948154;29;20023;-64
2023/10/23 11:32:16;;;;;;;7.63;3.00;;;17.90;89.60;;;;;;4949843;28;20055;-64
2023/10/23 11:34:42;;;;;;;6.88;2.65;;;18.10;87.20;;;;;;4949523;28;20027;-64
2023/10/23 11:37:09;;;;;;;14.63;4.00;;;18.20;89.20;;;;;;4949896;28;20110;-64
2023/10/23 11:39:37;;;;;;;9.77;3.15;;;18.60;87.90;;;;;;4949654;28;20477;-65
2023/10/23 11:42:03;;;;;;;7.18;2.95;;;18.80;83.80;;;;;;4945885;29;20562;-64
2023/10/23 11:44:32;;;;;;;9.73;3.13;;;18.70;85.80;;;;;;4948938;28;20027;-64
2023/10/23 11:46:58;;;;;;;10.75;3.58;;;18.70;84.40;;;;;;4949728;28;20050;-64
2023/10/23 11:49:24;;;;;;;8.20;3.00;;;18.40;83.50;;;;;;4949722;28;20039;-64
2023/10/23 11:51:56;;;;;;;8.82;3.28;;;17.90;86.10;;;;;;4947680;29;20116;-64
2023/10/23 11:54:24;;;;;;;8.20;2.78;;;17.60;87.80;;;;;;4946652;28;20085;-64
2023/10/23 11:56:49;;;;;;;9.00;3.00;;;17.40;90.60;;;;;;4949055;28;20573;-64
2023/10/23 11:59:19;;;;;;;6.38;2.40;;;17.30;92.00;;;;;;4948037;28;20023;-64
2023/10/23 12:01:46;;;;;;;7.28;2.35;;;17.30;92.60;;;;;;4948593;28;20047;-64
2023/10/23 12:04:12;;;;;;;8.40;2.72;;;17.20;92.30;;;;;;4949404;28;20033;-64
2023/10/23 12:06:39;;;;;;;5.55;2.00;;;17.30;91.70;;;;;;4948529;28;20028;-63
2023/10/23 12:09:06;;;;;;;6.32;1.80;;;17.20;91.50;;;;;;4948891;28;20047;-63
2023/10/23 12:11:32;;;;;;;5.00;1.80;;;17.00;92.10;;;;;;4947952;28;20038;-63
2023/10/23 12:13:59;;;;;;;5.28;1.73;;;16.90;91.90;;;;;;4963736;28;20024;-63
2023/10/23 12:16:26;;;;;;;6.80;1.98;;;16.70;92.40;;;;;;4946443;28;20031;-63
2023/10/23 12:18:51;;;;;;;7.22;1.83;;;16.60;91.70;;;;;;4947605;28;20055;-63
2023/10/23 12:21:18;;;;;;;8.35;1.73;;;16.50;92.80;;;;;;4948685;29;20163;-63
2023/10/23 12:23:44;;;;;;;6.43;2.17;;;16.60;94.10;;;;;;4948258;28;20069;-63
2023/10/23 12:26:11;;;;;;;5.18;1.92;;;16.60;91.50;;;;;;4948872;28;20054;-63
2023/10/23 12:28:37;;;;;;;5.47;1.90;;;16.70;92.70;;;;;;4946607;28;20122;-63
2023/10/23 12:31:04;;;;;;;5.85;1.70;;;16.80;92.20;;;;;;4945165;29;20122;-63
2023/10/23 12:33:33;;;;;;;4.50;1.40;;;16.80;91.60;;;;;;4948062;28;20015;-63
2023/10/23 12:36:03;;;;;;;4.88;1.60;;;16.70;91.30;;;;;;4949208;28;20050;-63
2023/10/23 12:38:30;;;;;;;4.97;1.70;;;16.80;91.00;;;;;;4944949;29;20466;-63
2023/10/23 12:40:58;;;;;;;8.93;1.70;;;16.80;91.10;;;;;;4947076;28;20483;-63
2023/10/23 12:43:23;;;;;;;4.30;1.60;;;16.80;92.00;;;;;;4947999;28;20028;-63
2023/10/23 12:45:49;;;;;;;4.40;1.60;;;16.80;92.10;;;;;;4947943;29;20031;-63